createdAt,value
2023-02-02T00:02:04.037Z,2.83
2023-02-02T00:05:09.911Z,2.17
2023-02-02T00:08:15.977Z,3.25
2023-02-02T00:11:25.635Z,3.47
2023-02-02T00:14:35.840Z,1.88
2023-02-02T00:17:43.158Z,2.08
2023-02-02T00:20:51.617Z,2.28
2023-02-02T00:24:00.304Z,2.05
2023-02-02T00:27:10.211Z,1.27
2023-02-02T00:30:20.718Z,1.05
2023-02-02T00:33:33.923Z,1.42
2023-02-02T00:36:39.139Z,1.60
2023-02-02T00:39:45.864Z,1.40
2023-02-02T00:42:51.821Z,1.63
2023-02-02T00:46:00.645Z,2.50
2023-02-02T00:49:05.695Z,1.38
2023-02-02T00:52:12.603Z,1.20
2023-02-02T00:55:18.353Z,1.70
2023-02-02T00:58:28.631Z,1.30
2023-02-02T01:01:37.354Z,0.90
2023-02-02T01:04:46.350Z,1.65
2023-02-02T01:07:51.675Z,0.90
2023-02-02T01:10:57.723Z,1.30
2023-02-02T01:14:05.487Z,2.35
2023-02-02T01:17:16.073Z,0.90
2023-02-02T01:20:25.626Z,1.48
2023-02-02T01:23:36.261Z,1.10
2023-02-02T01:26:46.726Z,0.90
2023-02-02T01:29:52.935Z,0.98
2023-02-02T01:33:03.033Z,0.50
2023-02-02T01:36:09.687Z,0.70
2023-02-02T01:39:14.805Z,0.63
2023-02-02T01:42:23.654Z,0.40
2023-02-02T01:45:29.798Z,1.27
2023-02-02T01:48:40.398Z,0.55
2023-02-02T01:51:47.523Z,0.52
2023-02-02T01:54:56.317Z,0.88
2023-02-02T01:58:03.681Z,0.80
2023-02-02T02:01:12.559Z,1.17
2023-02-02T02:04:23.062Z,1.00
2023-02-02T02:07:31.527Z,1.02
2023-02-02T02:10:37.702Z,1.15
2023-02-02T02:13:58.371Z,0.93
2023-02-02T02:17:15.796Z,1.20
2023-02-02T02:20:48.765Z,1.00
2023-02-02T02:24:21.256Z,1.23
2023-02-02T02:27:49.368Z,0.80
2023-02-02T02:31:04.580Z,2.10
2023-02-02T02:34:30.749Z,0.90
2023-02-02T02:41:42.074Z,0.70
2023-02-02T02:44:51.324Z,0.88
2023-02-02T02:48:05.603Z,0.73
2023-02-02T02:51:25.948Z,0.63
2023-02-02T02:54:38.113Z,0.60
2023-02-02T02:57:49.089Z,0.90
2023-02-02T03:01:00.123Z,0.60
2023-02-02T03:04:25.922Z,0.85
2023-02-02T03:07:36.475Z,0.80
2023-02-02T03:10:46.590Z,1.25
2023-02-02T03:13:55.325Z,0.73
2023-02-02T03:17:06.589Z,1.20
2023-02-02T03:20:15.094Z,1.02
2023-02-02T03:23:27.827Z,1.02
2023-02-02T03:26:37.789Z,1.30
2023-02-02T03:29:46.602Z,1.08
2023-02-02T03:32:52.791Z,2.13
2023-02-02T03:35:59.759Z,1.90
2023-02-02T03:39:05.590Z,1.83
2023-02-02T03:42:13.773Z,2.65
2023-02-02T03:45:21.814Z,1.98
2023-02-02T03:48:27.659Z,2.42
2023-02-02T03:51:39.926Z,1.83
2023-02-02T03:54:47.072Z,1.67
2023-02-02T03:57:55.025Z,1.88
2023-02-02T04:01:06.570Z,1.70
2023-02-02T04:04:22.605Z,1.13
2023-02-02T04:07:28.373Z,1.90
2023-02-02T04:10:35.236Z,2.53
2023-02-02T04:13:49.633Z,2.15
2023-02-02T04:16:58.982Z,2.38
2023-02-02T04:20:07.194Z,2.15
2023-02-02T04:23:14.518Z,1.73
2023-02-02T04:26:21.854Z,1.27
2023-02-02T04:29:29.992Z,1.27
2023-02-02T04:32:36.081Z,1.98
2023-02-02T04:35:44.180Z,1.33
2023-02-02T04:38:52.689Z,2.08
2023-02-02T04:41:58.140Z,0.90
2023-02-02T04:45:09.209Z,0.93
2023-02-02T04:48:14.543Z,1.30
2023-02-02T04:51:22.915Z,1.35
2023-02-02T04:54:29.042Z,1.35
2023-02-02T04:57:34.971Z,0.93
2023-02-02T05:00:43.285Z,0.80
2023-02-02T05:03:49.775Z,0.60
2023-02-02T05:06:58.049Z,0.63
2023-02-02T05:10:04.407Z,0.70
2023-02-02T05:13:10.759Z,0.55
2023-02-02T05:16:29.125Z,0.90
2023-02-02T05:19:35.428Z,0.90
2023-02-02T05:22:42.248Z,1.33
2023-02-02T05:25:48.484Z,0.88
2023-02-02T05:28:56.518Z,1.35
2023-02-02T05:32:07.962Z,0.75
2023-02-02T05:35:14.240Z,0.70
2023-02-02T05:38:19.476Z,1.17
2023-02-02T05:41:25.785Z,1.13
2023-02-02T05:44:31.055Z,1.02
2023-02-02T05:47:39.615Z,1.33
2023-02-02T05:50:45.101Z,0.88
2023-02-02T05:53:53.029Z,0.75
2023-02-02T05:57:01.391Z,1.77
2023-02-02T06:00:12.025Z,1.63
2023-02-02T06:03:23.232Z,1.63
2023-02-02T06:06:28.882Z,1.20
2023-02-02T06:09:36.977Z,0.80
2023-02-02T06:12:47.489Z,0.88
2023-02-02T06:15:55.174Z,0.70
2023-02-02T06:19:03.795Z,1.67
2023-02-02T06:22:11.529Z,0.77
2023-02-02T06:25:17.149Z,1.10
2023-02-02T06:28:22.242Z,1.35
2023-02-02T06:31:28.151Z,1.23
2023-02-02T06:34:35.815Z,0.70
2023-02-02T06:37:42.570Z,1.30
2023-02-02T06:40:47.746Z,1.00
2023-02-02T06:43:53.359Z,1.02
2023-02-02T06:46:58.258Z,1.52
2023-02-02T06:50:06.843Z,1.38
2023-02-02T06:53:12.399Z,0.80
2023-02-02T06:56:18.202Z,0.77
2023-02-02T06:59:23.605Z,1.23
2023-02-02T07:02:30.009Z,1.02
2023-02-02T07:05:38.820Z,1.20
2023-02-02T07:08:44.225Z,0.95
2023-02-02T07:11:50.542Z,0.82
2023-02-02T07:14:55.895Z,0.90
2023-02-02T07:18:01.065Z,0.85
2023-02-02T07:21:09.690Z,1.20
2023-02-02T07:24:16.992Z,0.80
2023-02-02T07:27:22.571Z,1.10
2023-02-02T07:30:30.047Z,1.45
2023-02-02T07:33:39.844Z,1.27
2023-02-02T07:36:47.751Z,1.13
2023-02-02T07:39:55.346Z,0.85
2023-02-02T07:43:01.424Z,0.60
2023-02-02T07:46:10.235Z,1.20
2023-02-02T07:49:17.609Z,0.98
2023-02-02T07:52:26.043Z,0.57
2023-02-02T07:55:31.708Z,0.70
2023-02-02T07:58:39.816Z,0.60
2023-02-02T08:01:45.092Z,0.98
2023-02-02T08:04:56.863Z,0.70
2023-02-02T08:08:14.907Z,1.00
2023-02-02T08:11:31.490Z,0.60
2023-02-02T08:14:38.401Z,1.00
2023-02-02T08:17:50.308Z,0.55
2023-02-02T08:24:20.235Z,0.77
2023-02-02T08:27:28.195Z,0.88
2023-02-02T08:30:34.128Z,1.50
2023-02-02T08:33:39.770Z,0.90
2023-02-02T08:36:45.328Z,0.80
2023-02-02T08:39:51.758Z,0.65
2023-02-02T08:43:00.155Z,0.73
2023-02-02T08:46:23.454Z,0.75
2023-02-02T08:49:29.397Z,0.80
2023-02-02T08:52:36.202Z,0.60
2023-02-02T08:55:41.836Z,1.02
2023-02-02T08:58:50.912Z,0.85
2023-02-02T09:01:59.107Z,0.88
2023-02-02T09:05:05.016Z,0.80
2023-02-02T09:08:14.882Z,0.55
2023-02-02T09:11:22.852Z,0.82
2023-02-02T09:14:31.504Z,0.75
2023-02-02T09:17:37.488Z,0.60
2023-02-02T09:20:43.724Z,0.70
2023-02-02T09:23:48.822Z,0.43
2023-02-02T09:26:54.258Z,0.50
2023-02-02T09:30:10.516Z,0.63
2023-02-02T09:33:18.114Z,0.70
2023-02-02T09:36:23.718Z,0.80
2023-02-02T09:39:29.291Z,0.73
2023-02-02T09:49:17.851Z,0.80
2023-02-02T09:59:24.197Z,0.90
2023-02-02T10:02:34.703Z,0.70
2023-02-02T10:05:52.050Z,0.70
2023-02-02T10:09:00.532Z,0.70
2023-02-02T10:12:09.687Z,0.80
2023-02-02T10:15:24.047Z,0.70
2023-02-02T10:18:37.792Z,0.95
2023-02-02T10:21:48.527Z,0.60
2023-02-02T10:24:53.979Z,0.55
2023-02-02T10:28:09.711Z,0.63
2023-02-02T10:31:30.115Z,0.70
2023-02-02T10:34:39.490Z,0.63
2023-02-02T10:37:46.792Z,1.10
2023-02-02T10:40:57.880Z,0.88
2023-02-02T10:44:08.845Z,1.48
2023-02-02T10:47:19.987Z,0.85
2023-02-02T10:50:28.763Z,0.60
2023-02-02T10:53:35.492Z,0.80
2023-02-02T10:56:43.798Z,1.00
2023-02-02T10:59:54.468Z,0.60
2023-02-02T11:03:04.926Z,1.20
2023-02-02T11:06:26.474Z,0.82
2023-02-02T11:09:34.668Z,0.90
2023-02-02T11:12:45.527Z,0.50
2023-02-02T11:15:53.793Z,0.85
2023-02-02T11:19:04.616Z,1.63
2023-02-02T11:22:09.602Z,0.60
2023-02-02T11:25:30.883Z,0.70
2023-02-02T11:31:58.729Z,0.60
2023-02-02T11:35:30.550Z,0.80
2023-02-02T11:41:45.545Z,0.65
2023-02-02T11:44:52.321Z,0.50
2023-02-02T11:48:00.338Z,0.52
2023-02-02T11:51:27.644Z,0.75
2023-02-02T11:54:36.516Z,0.65
2023-02-02T11:58:19.254Z,0.80
2023-02-02T12:01:29.935Z,0.60
2023-02-02T12:04:36.075Z,0.60
2023-02-02T12:07:46.994Z,0.60
2023-02-02T12:11:01.639Z,0.52
2023-02-02T12:14:15.157Z,0.50
2023-02-02T12:17:27.876Z,0.65
2023-02-02T12:20:38.624Z,0.30
2023-02-02T12:23:54.228Z,0.60
2023-02-02T12:27:02.833Z,0.50
2023-02-02T12:30:34.596Z,0.55
2023-02-02T12:33:51.036Z,0.47
2023-02-02T12:37:03.446Z,0.40
2023-02-02T12:40:18.308Z,0.47
2023-02-02T12:43:34.128Z,0.40
2023-02-02T12:46:47.967Z,0.60
2023-02-02T12:50:11.142Z,0.32
2023-02-02T12:53:32.348Z,0.30
2023-02-02T12:56:44.090Z,0.50
2023-02-02T13:00:21.700Z,0.47
2023-02-02T13:07:23.884Z,0.60
2023-02-02T13:10:42.291Z,0.85
2023-02-02T13:13:47.888Z,0.80
2023-02-02T13:17:10.587Z,0.70
2023-02-02T13:20:25.995Z,0.30
2023-02-02T13:23:47.239Z,0.45
2023-02-02T13:26:59.717Z,0.50
2023-02-02T13:30:31.718Z,0.50
2023-02-02T13:33:50.355Z,0.40
2023-02-02T13:36:59.634Z,0.38
2023-02-02T13:40:09.010Z,0.40
2023-02-02T13:43:35.092Z,0.40
2023-02-02T13:46:57.721Z,0.40
2023-02-02T13:50:11.127Z,0.47
2023-02-02T13:53:34.621Z,0.73
2023-02-02T13:56:43.019Z,0.73
2023-02-02T13:59:57.199Z,0.77
2023-02-02T14:03:09.376Z,0.43
2023-02-02T14:06:18.044Z,0.50
2023-02-02T14:09:23.415Z,0.30
2023-02-02T14:12:32.043Z,0.82
2023-02-02T14:15:42.880Z,0.47
2023-02-02T14:18:58.024Z,0.80
2023-02-02T14:22:08.174Z,0.47
2023-02-02T14:25:29.379Z,0.50
2023-02-02T14:28:45.040Z,0.50
2023-02-02T14:31:59.627Z,0.73
2023-02-02T14:35:20.899Z,0.50
2023-02-02T14:38:39.902Z,0.70
2023-02-02T14:42:06.944Z,0.60
2023-02-02T14:45:37.247Z,0.60
2023-02-02T14:48:43.529Z,0.60
2023-02-02T14:51:55.542Z,0.73
2023-02-02T14:55:08.710Z,0.85
2023-02-02T14:58:25.066Z,0.63
2023-02-02T15:01:32.744Z,0.80
2023-02-02T15:04:38.504Z,0.60
2023-02-02T15:08:01.037Z,0.93
2023-02-02T15:14:38.516Z,0.70
2023-02-02T15:17:50.947Z,0.57
2023-02-02T15:20:59.044Z,0.80
2023-02-02T15:24:06.379Z,0.60
2023-02-02T15:27:18.415Z,0.63
2023-02-02T15:30:27.196Z,0.93
2023-02-02T15:33:35.493Z,0.68
2023-02-02T15:36:49.364Z,0.60
2023-02-02T15:40:04.700Z,0.93
2023-02-02T15:43:13.718Z,0.60
2023-02-02T15:46:24.871Z,0.75
2023-02-02T15:49:35.140Z,0.70
2023-02-02T15:52:50.689Z,0.50
2023-02-02T15:55:59.419Z,0.70
2023-02-02T15:59:04.706Z,0.57
2023-02-02T16:02:22.958Z,0.55
2023-02-02T16:05:42.056Z,0.82
2023-02-02T16:08:50.893Z,0.63
2023-02-02T16:11:58.529Z,0.52
2023-02-02T16:15:04.551Z,0.82
2023-02-02T16:18:16.418Z,0.80
2023-02-02T16:21:35.409Z,0.40
2023-02-02T16:24:43.389Z,0.82
2023-02-02T16:28:01.072Z,0.60
2023-02-02T16:31:07.510Z,0.90
2023-02-02T16:34:20.233Z,0.50
2023-02-02T16:37:27.504Z,0.63
2023-02-02T16:40:34.114Z,0.50
2023-02-02T16:43:43.710Z,0.63
2023-02-02T16:46:56.811Z,0.65
2023-02-02T16:50:21.940Z,0.90
2023-02-02T16:53:28.799Z,0.50
2023-02-02T16:56:36.279Z,0.70
2023-02-02T16:59:42.140Z,0.60
2023-02-02T17:02:49.178Z,0.90
2023-02-02T17:05:58.773Z,0.50
2023-02-02T17:09:18.942Z,0.70
2023-02-02T17:12:33.852Z,0.50
2023-02-02T17:15:40.463Z,0.70
2023-02-02T17:18:46.278Z,0.52
2023-02-02T17:22:06.389Z,0.60
2023-02-02T17:25:17.416Z,0.50
2023-02-02T17:28:26.093Z,0.47
2023-02-02T17:31:33.937Z,0.60
2023-02-02T17:34:39.333Z,0.70
2023-02-02T17:37:48.276Z,0.60
2023-02-02T17:40:53.915Z,0.55
2023-02-02T17:44:01.783Z,0.60
2023-02-02T17:47:15.182Z,0.75
2023-02-02T17:50:21.913Z,0.60
2023-02-02T17:53:33.439Z,0.70
2023-02-02T17:56:41.760Z,0.60
2023-02-02T17:59:49.015Z,0.60
2023-02-02T18:03:00.195Z,0.50
2023-02-02T18:06:06.860Z,0.50
2023-02-02T18:09:15.631Z,0.70
2023-02-02T18:12:23.273Z,0.57
2023-02-02T18:15:29.452Z,0.80
2023-02-02T18:18:39.581Z,0.70
2023-02-02T18:21:47.312Z,0.60
2023-02-02T18:24:56.244Z,0.32
2023-02-02T18:28:01.717Z,0.75
2023-02-02T18:31:10.348Z,0.50
2023-02-02T18:34:16.134Z,0.60
2023-02-02T18:37:24.224Z,1.17
2023-02-02T18:40:33.395Z,0.40
2023-02-02T18:43:38.775Z,0.50
2023-02-02T18:46:45.667Z,0.50
2023-02-02T18:49:59.123Z,0.60
2023-02-02T18:53:06.560Z,0.82
2023-02-02T18:56:24.273Z,0.40
2023-02-02T18:59:32.876Z,0.55
2023-02-02T19:02:38.589Z,0.63
2023-02-02T19:05:56.717Z,0.40
2023-02-02T19:09:04.629Z,0.60
2023-02-02T19:12:18.083Z,0.60
2023-02-02T19:15:23.485Z,0.70
2023-02-02T19:18:29.874Z,0.63
2023-02-02T19:21:41.429Z,0.50
2023-02-02T19:24:50.750Z,0.80
2023-02-02T19:27:58.904Z,1.52
2023-02-02T19:31:05.530Z,0.55
2023-02-02T19:34:15.023Z,0.77
2023-02-02T19:37:25.015Z,0.75
2023-02-02T19:40:34.948Z,0.60
2023-02-02T19:43:48.598Z,0.65
2023-02-02T19:46:58.459Z,0.80
2023-02-02T19:50:15.196Z,0.70
2023-02-02T19:53:23.422Z,1.30
2023-02-02T19:56:30.341Z,0.70
2023-02-02T19:59:38.785Z,0.55
2023-02-02T20:02:56.278Z,0.75
2023-02-02T20:06:05.969Z,1.10
2023-02-02T20:09:16.241Z,0.90
2023-02-02T20:12:26.458Z,0.75
2023-02-02T20:18:48.888Z,0.82
2023-02-02T20:21:58.824Z,1.20
2023-02-02T20:25:08.735Z,0.88
2023-02-02T20:28:25.229Z,0.70
2023-02-02T20:31:37.711Z,0.88
2023-02-02T20:34:47.495Z,0.60
2023-02-02T20:37:57.422Z,0.57
2023-02-02T20:41:07.270Z,0.60
2023-02-02T20:44:12.784Z,0.70
2023-02-02T20:47:18.469Z,0.80
2023-02-02T20:50:27.903Z,0.70
2023-02-02T20:53:38.501Z,0.50
2023-02-02T20:56:49.327Z,0.52
2023-02-02T20:59:59.250Z,0.60
2023-02-02T21:03:05.659Z,0.50
2023-02-02T21:06:14.517Z,0.50
2023-02-02T21:09:20.316Z,0.52
2023-02-02T21:12:26.091Z,0.50
2023-02-02T21:15:31.204Z,0.70
2023-02-02T21:18:36.521Z,0.80
2023-02-02T21:21:44.360Z,0.40
2023-02-02T21:24:49.811Z,0.50
2023-02-02T21:27:58.232Z,0.82
2023-02-02T21:31:05.051Z,0.98
2023-02-02T21:34:10.601Z,1.38
2023-02-02T21:37:19.276Z,1.92
2023-02-02T21:40:30.649Z,2.03
2023-02-02T21:43:38.523Z,2.10
2023-02-02T21:46:44.814Z,1.80
2023-02-02T21:49:50.257Z,1.85
2023-02-02T21:53:03.982Z,1.90
2023-02-02T21:56:17.867Z,2.10
2023-02-02T21:59:24.252Z,1.67
2023-02-02T22:02:39.740Z,1.90
2023-02-02T22:05:45.523Z,1.92
2023-02-02T22:08:54.421Z,2.50
2023-02-02T22:12:01.690Z,2.20
2023-02-02T22:15:19.934Z,2.00
2023-02-02T22:18:39.464Z,2.22
2023-02-02T22:21:47.959Z,2.05
2023-02-02T22:25:01.300Z,2.00
2023-02-02T22:28:14.532Z,2.17
2023-02-02T22:31:19.935Z,1.83
2023-02-02T22:34:26.355Z,2.17
2023-02-02T22:37:34.411Z,2.55
2023-02-02T22:40:43.045Z,3.03
2023-02-02T22:43:50.516Z,2.83
2023-02-02T22:46:56.302Z,2.38
2023-02-02T22:50:01.919Z,2.25
2023-02-02T22:53:07.588Z,2.30
2023-02-02T22:56:17.411Z,2.08
2023-02-02T22:59:22.846Z,2.97
2023-02-02T23:02:28.402Z,2.78
2023-02-02T23:05:34.024Z,2.70
2023-02-02T23:08:42.506Z,2.47
2023-02-02T23:11:51.090Z,3.53
2023-02-02T23:14:56.239Z,2.92
2023-02-02T23:18:03.213Z,2.33
2023-02-02T23:21:08.266Z,1.83
2023-02-02T23:24:13.823Z,2.63
2023-02-02T23:27:25.771Z,2.60
2023-02-02T23:30:34.786Z,3.20
2023-02-02T23:33:42.687Z,2.58
2023-02-02T23:36:52.718Z,2.67
2023-02-02T23:39:59.201Z,3.28
2023-02-02T23:43:12.628Z,3.42
2023-02-02T23:46:18.225Z,2.45
2023-02-02T23:49:27.569Z,2.70
2023-02-02T23:52:33.159Z,2.85
2023-02-02T23:55:43.058Z,2.80
2023-02-02T23:58:50.910Z,3.35
